Time,TemperatureF,DewpointF,PressureIn,WindDirection,WindDirectionDegrees,WindSpeedMPH,WindSpeedGustMPH,Humidity,HourlyPrecipIn,Conditions,Clouds,dailyrainin,SolarRadiationWatts/m^2,SoftwareType,DateUTC
2013-05-22 00:11:00,36.0,30.0,-100.00,West,277,3.0,7.0,80,0.00,,,0.00,0.000000,,2013-05-22 06:11:00,
2013-05-22 00:42:00,36.0,31.0,-100.00,West,271,3.0,5.0,81,0.00,,,0.00,0.000000,,2013-05-22 06:42:00,
2013-05-22 00:52:00,36.0,31.0,-100.00,West,271,3.0,5.0,81,0.00,,,0.00,0.000000,,2013-05-22 06:52:00,
2013-05-22 01:01:00,36.0,31.0,-100.00,West,271,3.0,5.0,81,0.00,,,0.00,0.000000,,2013-05-22 07:01:00,
2013-05-22 01:11:00,36.0,31.0,-100.00,West,271,3.0,5.0,81,0.00,,,0.00,0.000000,,2013-05-22 07:11:00,
2013-05-22 01:32:00,36.0,32.0,-100.00,NW,307,3.0,5.0,84,0.00,,,0.00,0.000000,,2013-05-22 07:32:00,
2013-05-22 01:42:00,36.0,32.0,-100.00,NW,307,3.0,5.0,84,0.00,,,0.00,0.000000,,2013-05-22 07:42:00,
2013-05-22 01:52:00,36.0,32.0,-100.00,NW,307,3.0,5.0,84,0.00,,,0.00,0.000000,,2013-05-22 07:52:00,
2013-05-22 02:02:00,36.0,32.0,-100.00,NW,307,3.0,5.0,84,0.00,,,0.00,0.000000,,2013-05-22 08:02:00,
2013-05-22 02:11:00,36.0,32.0,-100.00,NW,307,3.0,5.0,84,0.00,,,0.00,0.000000,,2013-05-22 08:11:00,
2013-05-22 02:32:00,35.0,31.0,-100.00,West,266,2.0,7.0,86,0.00,,,0.00,0.000000,,2013-05-22 08:32:00,
2013-05-22 02:42:00,35.0,31.0,-100.00,West,266,2.0,7.0,86,0.00,,,0.00,0.000000,,2013-05-22 08:42:00,
2013-05-22 02:52:00,35.0,31.0,-100.00,West,266,2.0,7.0,86,0.00,,,0.00,0.000000,,2013-05-22 08:52:00,
2013-05-22 03:01:00,35.0,31.0,-100.00,West,266,2.0,7.0,86,0.00,,,0.00,0.000000,,2013-05-22 09:01:00,
2013-05-22 03:11:00,35.0,31.0,-100.00,West,266,2.0,7.0,86,0.00,,,0.00,0.000000,,2013-05-22 09:11:00,
2013-05-22 03:33:00,35.0,31.0,-100.00,West,266,3.0,6.0,84,0.00,,,0.00,0.000000,,2013-05-22 09:33:00,
2013-05-22 03:42:00,35.0,31.0,-100.00,West,266,3.0,6.0,84,0.00,,,0.00,0.000000,,2013-05-22 09:42:00,
2013-05-22 03:53:00,35.0,31.0,-100.00,West,266,3.0,6.0,84,0.00,,,0.00,0.000000,,2013-05-22 09:53:00,
2013-05-22 04:02:00,35.0,31.0,-100.00,West,266,3.0,6.0,84,0.00,,,0.00,0.000000,,2013-05-22 10:02:00,
2013-05-22 04:12:00,35.0,31.0,-100.00,West,266,3.0,6.0,84,0.00,,,0.00,0.000000,,2013-05-22 10:12:00,
2013-05-22 04:33:00,33.0,30.0,-100.00,West,272,3.0,6.0,88,0.00,,,0.00,0.000000,,2013-05-22 10:33:00,
2013-05-22 04:42:00,33.0,30.0,-100.00,West,272,3.0,6.0,88,0.00,,,0.00,0.000000,,2013-05-22 10:42:00,
2013-05-22 04:52:00,33.0,30.0,-100.00,West,272,3.0,6.0,88,0.00,,,0.00,0.000000,,2013-05-22 10:52:00,
2013-05-22 05:02:00,33.0,30.0,-100.00,West,272,3.0,6.0,88,0.00,,,0.00,0.000000,,2013-05-22 11:02:00,
2013-05-22 05:11:00,33.0,30.0,-100.00,West,272,3.0,6.0,88,0.00,,,0.00,0.000000,,2013-05-22 11:11:00,
2013-05-22 05:32:00,33.0,30.0,-100.00,West,281,4.0,8.0,88,0.00,,,0.00,0.000000,,2013-05-22 11:32:00,
2013-05-22 05:42:00,33.0,30.0,-100.00,West,281,4.0,8.0,88,0.00,,,0.00,0.000000,,2013-05-22 11:42:00,
2013-05-22 05:52:00,33.0,30.0,-100.00,West,281,4.0,8.0,88,0.00,,,0.00,0.000000,,2013-05-22 11:52:00,
2013-05-22 06:02:00,33.0,30.0,-100.00,West,281,4.0,8.0,88,0.00,,,0.00,0.000000,,2013-05-22 12:02:00,
2013-05-22 06:11:00,33.0,30.0,-100.00,West,281,4.0,8.0,88,0.00,,,0.00,0.000000,,2013-05-22 12:11:00,
2013-05-22 06:32:00,34.0,30.0,-100.00,West,277,4.0,7.0,86,0.00,,,0.00,8.000000,,2013-05-22 12:32:00,
2013-05-22 06:42:00,34.0,30.0,-100.00,West,277,4.0,7.0,86,0.00,,,0.00,8.000000,,2013-05-22 12:42:00,
2013-05-22 06:52:00,34.0,30.0,-100.00,West,277,4.0,7.0,86,0.00,,,0.00,8.000000,,2013-05-22 12:52:00,
2013-05-22 07:01:00,34.0,30.0,-100.00,West,277,4.0,7.0,86,0.00,,,0.00,8.000000,,2013-05-22 13:01:00,
2013-05-22 07:11:00,34.0,30.0,-100.00,West,277,4.0,7.0,86,0.00,,,0.00,8.000000,,2013-05-22 13:11:00,
2013-05-22 07:32:00,41.0,35.0,-100.00,WSW,252,2.0,8.0,78,0.00,,,0.00,113.000000,,2013-05-22 13:32:00,
2013-05-22 07:42:00,41.0,35.0,-100.00,WSW,252,2.0,8.0,78,0.00,,,0.00,113.000000,,2013-05-22 13:42:00,
2013-05-22 07:52:00,41.0,35.0,-100.00,WSW,252,2.0,8.0,78,0.00,,,0.00,113.000000,,2013-05-22 13:52:00,
2013-05-22 08:02:00,41.0,35.0,-100.00,WSW,252,2.0,8.0,78,0.00,,,0.00,113.000000,,2013-05-22 14:02:00,
2013-05-22 08:11:00,41.0,35.0,-100.00,WSW,252,2.0,8.0,78,0.00,,,0.00,113.000000,,2013-05-22 14:11:00,
2013-05-22 08:32:00,41.0,35.0,-100.00,East,85,9.0,14.0,78,0.00,,,0.00,339.000000,,2013-05-22 14:32:00,
2013-05-22 08:42:00,41.0,35.0,-100.00,East,85,9.0,14.0,78,0.00,,,0.00,339.000000,,2013-05-22 14:42:00,
2013-05-22 08:52:00,41.0,35.0,-100.00,East,85,9.0,14.0,78,0.00,,,0.00,339.000000,,2013-05-22 14:52:00,
2013-05-22 09:01:00,41.0,35.0,-100.00,East,85,9.0,14.0,78,0.00,,,0.00,339.000000,,2013-05-22 15:01:00,
2013-05-22 09:11:00,41.0,35.0,-100.00,East,85,9.0,14.0,78,0.00,,,0.00,339.000000,,2013-05-22 15:11:00,
2013-05-22 09:33:00,41.0,37.0,-100.00,East,94,8.0,12.0,87,0.00,,,0.00,463.000000,,2013-05-22 15:33:00,
2013-05-22 09:43:00,41.0,37.0,-100.00,East,94,8.0,12.0,87,0.00,,,0.00,463.000000,,2013-05-22 15:43:00,
2013-05-22 09:53:00,41.0,37.0,-100.00,East,94,8.0,12.0,87,0.00,,,0.00,463.000000,,2013-05-22 15:53:00,
2013-05-22 10:03:00,41.0,37.0,-100.00,East,94,8.0,12.0,87,0.00,,,0.00,463.000000,,2013-05-22 16:03:00,
2013-05-22 10:12:00,41.0,37.0,-100.00,East,94,8.0,12.0,87,0.00,,,0.00,463.000000,,2013-05-22 16:12:00,
2013-05-22 10:33:00,43.0,38.0,-100.00,East,95,10.0,16.0,83,0.00,,,0.00,690.000000,,2013-05-22 16:33:00,
2013-05-22 10:42:00,43.0,38.0,-100.00,East,95,10.0,16.0,83,0.00,,,0.00,690.000000,,2013-05-22 16:42:00,
2013-05-22 10:52:00,43.0,38.0,-100.00,East,95,10.0,16.0,83,0.00,,,0.00,690.000000,,2013-05-22 16:52:00,
2013-05-22 11:02:00,43.0,38.0,-100.00,East,95,10.0,16.0,83,0.00,,,0.00,690.000000,,2013-05-22 17:02:00,
2013-05-22 11:11:00,43.0,38.0,-100.00,East,95,10.0,16.0,83,0.00,,,0.00,690.000000,,2013-05-22 17:11:00,
2013-05-22 11:33:00,44.0,39.0,-100.00,ESE,113,9.0,17.0,81,0.00,,,0.00,799.000000,,2013-05-22 17:33:00,
2013-05-22 11:42:00,44.0,39.0,-100.00,ESE,113,9.0,17.0,81,0.00,,,0.00,799.000000,,2013-05-22 17:42:00,
2013-05-22 11:53:00,44.0,39.0,-100.00,ESE,113,9.0,17.0,81,0.00,,,0.00,799.000000,,2013-05-22 17:53:00,
2013-05-22 12:02:00,44.0,39.0,-100.00,ESE,113,9.0,17.0,81,0.00,,,0.00,799.000000,,2013-05-22 18:02:00,
2013-05-22 12:14:00,44.0,39.0,-100.00,ESE,113,9.0,17.0,81,0.00,,,0.00,799.000000,,2013-05-22 18:14:00,
2013-05-22 12:34:00,49.0,40.0,-100.00,ESE,120,11.0,16.0,72,0.00,,,0.00,827.000000,,2013-05-22 18:34:00,
2013-05-22 12:42:00,49.0,40.0,-100.00,ESE,120,11.0,16.0,72,0.00,,,0.00,827.000000,,2013-05-22 18:42:00,
2013-05-22 12:52:00,49.0,40.0,-100.00,ESE,120,11.0,16.0,72,0.00,,,0.00,827.000000,,2013-05-22 18:52:00,
2013-05-22 13:02:00,49.0,40.0,-100.00,ESE,120,11.0,16.0,72,0.00,,,0.00,827.000000,,2013-05-22 19:02:00,
2013-05-22 13:11:00,49.0,40.0,-100.00,ESE,120,11.0,16.0,72,0.00,,,0.00,827.000000,,2013-05-22 19:11:00,
2013-05-22 13:32:00,52.0,41.0,-100.00,SE,125,8.0,16.0,66,0.00,,,0.00,1065.000000,,2013-05-22 19:32:00,
2013-05-22 13:42:00,52.0,41.0,-100.00,SE,125,8.0,16.0,66,0.00,,,0.00,1065.000000,,2013-05-22 19:42:00,
2013-05-22 13:52:00,52.0,41.0,-100.00,SE,125,8.0,16.0,66,0.00,,,0.00,1065.000000,,2013-05-22 19:52:00,
2013-05-22 14:02:00,52.0,41.0,-100.00,SE,125,8.0,16.0,66,0.00,,,0.00,1065.000000,,2013-05-22 20:02:00,
2013-05-22 14:11:00,52.0,41.0,-100.00,SE,125,8.0,16.0,66,0.00,,,0.00,1065.000000,,2013-05-22 20:11:00,
2013-05-22 14:32:00,53.0,41.0,-100.00,ESE,106,11.0,17.0,64,0.00,,,0.00,993.000000,,2013-05-22 20:32:00,
2013-05-22 14:42:00,53.0,41.0,-100.00,ESE,106,11.0,17.0,64,0.00,,,0.00,993.000000,,2013-05-22 20:42:00,
2013-05-22 14:52:00,53.0,41.0,-100.00,ESE,106,11.0,17.0,64,0.00,,,0.00,993.000000,,2013-05-22 20:52:00,
2013-05-22 15:01:00,53.0,41.0,-100.00,ESE,106,11.0,17.0,64,0.00,,,0.00,993.000000,,2013-05-22 21:01:00,
2013-05-22 15:11:00,53.0,41.0,-100.00,ESE,106,11.0,17.0,64,0.00,,,0.00,993.000000,,2013-05-22 21:11:00,
2013-05-22 15:33:00,54.0,40.0,-100.00,ESE,106,10.0,21.0,60,0.00,,,0.00,838.000000,,2013-05-22 21:33:00,
2013-05-22 15:42:00,54.0,40.0,-100.00,ESE,106,10.0,21.0,60,0.00,,,0.00,838.000000,,2013-05-22 21:42:00,
2013-05-22 15:53:00,54.0,40.0,-100.00,ESE,106,10.0,21.0,60,0.00,,,0.00,838.000000,,2013-05-22 21:53:00,
2013-05-22 16:03:00,54.0,40.0,-100.00,ESE,106,10.0,21.0,60,0.00,,,0.00,838.000000,,2013-05-22 22:03:00,
2013-05-22 16:12:00,54.0,40.0,-100.00,ESE,106,10.0,21.0,60,0.00,,,0.00,838.000000,,2013-05-22 22:12:00,
2013-05-22 16:42:00,53.0,39.0,-100.00,ESE,110,7.0,16.0,58,0.00,,,0.00,586.000000,,2013-05-22 22:42:00,
2013-05-22 16:52:00,53.0,39.0,-100.00,ESE,110,7.0,16.0,58,0.00,,,0.00,586.000000,,2013-05-22 22:52:00,
2013-05-22 17:02:00,53.0,39.0,-100.00,ESE,110,7.0,16.0,58,0.00,,,0.00,586.000000,,2013-05-22 23:02:00,
2013-05-22 17:12:00,53.0,39.0,-100.00,ESE,110,7.0,16.0,58,0.00,,,0.00,586.000000,,2013-05-22 23:12:00,
2013-05-22 17:42:00,52.0,39.0,-100.00,East,101,5.0,15.0,60,0.00,,,0.00,204.000000,,2013-05-22 23:42:00,
2013-05-22 17:52:00,52.0,39.0,-100.00,East,101,5.0,15.0,60,0.00,,,0.00,204.000000,,2013-05-22 23:52:00,
2013-05-22 18:01:00,52.0,39.0,-100.00,East,101,5.0,15.0,60,0.00,,,0.00,204.000000,,2013-05-23 00:01:00,
2013-05-22 18:11:00,52.0,39.0,-100.00,East,101,5.0,15.0,60,0.00,,,0.00,204.000000,,2013-05-23 00:11:00,
2013-05-22 19:32:00,51.0,40.0,-100.00,WSW,245,2.0,5.0,67,-99.99,,,0.00,71.000000,,2013-05-23 01:32:00,
2013-05-22 19:42:00,51.0,40.0,-100.00,WSW,245,2.0,5.0,67,-99.99,,,0.00,71.000000,,2013-05-23 01:42:00,
2013-05-22 19:52:00,51.0,40.0,-100.00,WSW,245,2.0,5.0,67,-99.99,,,0.00,71.000000,,2013-05-23 01:52:00,
2013-05-22 20:01:00,51.0,40.0,-100.00,WSW,245,2.0,5.0,67,-99.99,,,0.00,71.000000,,2013-05-23 02:01:00,
2013-05-22 20:11:00,51.0,40.0,-100.00,WSW,245,2.0,5.0,67,-99.99,,,0.00,71.000000,,2013-05-23 02:11:00,
2013-05-22 20:32:00,46.0,45.0,-100.00,WNW,283,4.0,8.0,95,0.05,,,0.05,10.000000,,2013-05-23 02:32:00,
2013-05-22 20:42:00,46.0,45.0,-100.00,WNW,283,4.0,8.0,95,0.05,,,0.05,10.000000,,2013-05-23 02:42:00,
2013-05-22 20:51:00,46.0,45.0,-100.00,WNW,283,4.0,8.0,95,0.05,,,0.05,10.000000,,2013-05-23 02:51:00,
2013-05-22 21:01:00,46.0,45.0,-100.00,WNW,283,4.0,8.0,95,0.05,,,0.05,10.000000,,2013-05-23 03:01:00,
2013-05-22 21:11:00,46.0,45.0,-100.00,WNW,283,4.0,8.0,95,0.05,,,0.05,10.000000,,2013-05-23 03:11:00,
2013-05-22 21:33:00,45.0,44.0,-100.00,East,97,3.0,7.0,97,0.11,,,0.16,1.000000,,2013-05-23 03:33:00,
2013-05-22 21:43:00,45.0,44.0,-100.00,East,97,3.0,7.0,97,0.11,,,0.16,1.000000,,2013-05-23 03:43:00,
2013-05-22 21:53:00,45.0,44.0,-100.00,East,97,3.0,7.0,97,0.11,,,0.16,1.000000,,2013-05-23 03:53:00,
2013-05-22 22:02:00,45.0,44.0,-100.00,East,97,3.0,7.0,97,0.11,,,0.16,1.000000,,2013-05-23 04:02:00,
2013-05-22 22:12:00,45.0,44.0,-100.00,East,97,3.0,7.0,97,0.11,,,0.16,1.000000,,2013-05-23 04:12:00,
2013-05-22 22:33:00,44.0,41.0,-100.00,ESE,104,6.0,12.0,88,0.22,,,0.38,0.000000,,2013-05-23 04:33:00,
2013-05-22 22:43:00,44.0,41.0,-100.00,ESE,104,6.0,12.0,88,0.22,,,0.38,0.000000,,2013-05-23 04:43:00,
2013-05-22 22:52:00,44.0,41.0,-100.00,ESE,104,6.0,12.0,88,0.22,,,0.38,0.000000,,2013-05-23 04:52:00,
2013-05-22 23:02:00,44.0,41.0,-100.00,ESE,104,6.0,12.0,88,0.22,,,0.38,0.000000,,2013-05-23 05:02:00,
2013-05-22 23:11:00,44.0,41.0,-100.00,ESE,104,6.0,12.0,88,0.22,,,0.38,0.000000,,2013-05-23 05:11:00,
2013-05-22 23:32:00,43.0,42.0,-100.00,North,355,2.0,5.0,97,0.01,,,0.39,0.000000,,2013-05-23 05:32:00,
2013-05-22 23:43:00,43.0,42.0,-100.00,North,355,2.0,5.0,97,0.01,,,0.39,0.000000,,2013-05-23 05:43:00,
2013-05-22 23:52:00,43.0,42.0,-100.00,North,355,2.0,5.0,97,0.01,,,0.39,0.000000,,2013-05-23 05:52:00,